createdAt,value
2018-12-07T00:01:33.057Z,13.75
2018-12-07T00:03:59.373Z,14.60
2018-12-07T00:06:25.644Z,15.25
2018-12-07T00:08:51.954Z,14.55
2018-12-07T00:11:18.211Z,13.50
2018-12-07T00:13:44.622Z,13.93
2018-12-07T00:16:10.897Z,14.15
2018-12-07T00:18:37.144Z,14.53
2018-12-07T00:21:03.465Z,12.82
2018-12-07T00:23:29.751Z,13.85
2018-12-07T00:25:56.039Z,13.30
2018-12-07T00:28:22.327Z,14.90
2018-12-07T00:30:48.588Z,15.70
2018-12-07T00:33:14.880Z,14.10
2018-12-07T00:38:22.961Z,14.55
2018-12-07T00:40:49.225Z,15.08
2018-12-07T00:43:15.506Z,14.90
2018-12-07T00:45:41.828Z,13.95
2018-12-07T00:48:08.098Z,14.58
2018-12-07T00:50:34.397Z,15.10
2018-12-07T00:53:00.651Z,14.33
2018-12-07T00:55:35.170Z,14.30
2018-12-07T00:58:01.473Z,14.10
2018-12-07T01:00:27.763Z,16.00
2018-12-07T01:02:54.026Z,14.20
2018-12-07T01:05:20.292Z,14.07
2018-12-07T01:07:46.578Z,13.40
2018-12-07T01:10:12.952Z,14.83
2018-12-07T01:12:39.261Z,14.18
2018-12-07T01:15:05.687Z,15.83
2018-12-07T01:17:31.944Z,14.13
2018-12-07T01:19:58.227Z,13.95
2018-12-07T01:22:24.509Z,14.33
2018-12-07T01:24:50.811Z,15.25
2018-12-07T01:27:17.106Z,13.90
2018-12-07T01:29:43.360Z,15.20
2018-12-07T01:32:09.636Z,15.28
2018-12-07T01:34:35.948Z,15.38
2018-12-07T01:37:02.252Z,14.15
2018-12-07T01:39:28.541Z,14.83
2018-12-07T01:41:54.810Z,15.43
2018-12-07T01:44:21.101Z,15.70
2018-12-07T01:46:47.365Z,15.32
2018-12-07T01:49:13.618Z,15.45
2018-12-07T01:51:39.889Z,13.65
2018-12-07T01:54:06.164Z,16.55
2018-12-07T01:56:32.457Z,16.40
2018-12-07T01:58:58.853Z,15.35
2018-12-07T02:01:25.122Z,15.18
2018-12-07T02:03:51.413Z,14.80
2018-12-07T02:06:17.681Z,15.60
2018-12-07T02:08:44.030Z,14.90
2018-12-07T02:11:10.358Z,15.90
2018-12-07T02:13:36.662Z,14.45
2018-12-07T02:16:02.950Z,15.80
2018-12-07T02:18:29.232Z,15.23
2018-12-07T02:20:55.500Z,14.85
2018-12-07T02:23:21.811Z,15.58
2018-12-07T02:25:48.066Z,14.33
2018-12-07T02:28:14.366Z,15.38
2018-12-07T02:30:40.633Z,14.50
2018-12-07T02:33:06.938Z,15.00
2018-12-07T02:35:33.238Z,14.78
2018-12-07T02:37:59.501Z,15.10
2018-12-07T02:40:25.792Z,15.48
2018-12-07T02:42:52.072Z,13.95
2018-12-07T02:45:18.333Z,16.42
2018-12-07T02:47:44.650Z,15.18
2018-12-07T02:50:10.919Z,14.78
2018-12-07T02:52:37.186Z,15.95
2018-12-07T02:55:04.430Z,15.70
2018-12-07T02:57:30.714Z,15.85
2018-12-07T02:59:57.009Z,15.45
2018-12-07T03:02:23.299Z,14.78
2018-12-07T03:04:49.548Z,15.43
2018-12-07T03:07:15.838Z,15.80
2018-12-07T03:09:42.099Z,14.23
2018-12-07T03:12:08.372Z,16.02
2018-12-07T03:14:34.684Z,14.75
2018-12-07T03:17:00.944Z,14.65
2018-12-07T03:19:27.366Z,14.45
2018-12-07T03:21:53.643Z,13.88
2018-12-07T03:24:19.894Z,13.30
2018-12-07T03:26:46.191Z,12.88
2018-12-07T03:29:12.474Z,14.83
2018-12-07T03:31:38.764Z,14.40
2018-12-07T03:34:05.078Z,13.50
2018-12-07T03:36:31.336Z,14.18
2018-12-07T03:38:57.637Z,14.93
2018-12-07T03:41:23.918Z,14.13
2018-12-07T03:43:50.184Z,15.00
2018-12-07T03:46:16.468Z,13.18
2018-12-07T03:48:42.748Z,14.50
2018-12-07T03:51:09.040Z,13.85
2018-12-07T03:53:35.325Z,12.70
2018-12-07T03:56:01.612Z,13.30
2018-12-07T03:58:27.872Z,13.62
2018-12-07T04:00:54.184Z,16.00
2018-12-07T04:03:20.483Z,13.15
2018-12-07T04:05:46.753Z,14.93
2018-12-07T04:08:13.058Z,13.65
2018-12-07T04:10:39.308Z,14.07
2018-12-07T04:13:05.644Z,13.45
2018-12-07T04:15:32.188Z,13.85
2018-12-07T04:17:58.490Z,13.35
2018-12-07T04:20:24.800Z,16.10
2018-12-07T04:22:51.080Z,16.42
2018-12-07T04:25:17.338Z,13.60
2018-12-07T04:27:43.661Z,15.30
2018-12-07T04:30:20.933Z,16.02
2018-12-07T04:32:47.225Z,12.98
2018-12-07T04:35:13.499Z,13.72
2018-12-07T04:37:39.763Z,14.65
2018-12-07T04:40:06.311Z,14.40
2018-12-07T04:42:32.553Z,14.83
2018-12-07T04:44:58.839Z,13.65
2018-12-07T04:47:25.115Z,14.25
2018-12-07T04:49:51.389Z,14.73
2018-12-07T04:52:17.656Z,14.30
2018-12-07T04:54:43.962Z,14.80
2018-12-07T04:57:10.226Z,16.90
2018-12-07T04:59:36.480Z,15.85
2018-12-07T05:02:02.800Z,15.60
2018-12-07T05:04:29.084Z,14.33
2018-12-07T05:06:55.356Z,15.25
2018-12-07T05:09:21.645Z,13.83
2018-12-07T05:11:47.990Z,14.65
2018-12-07T05:14:14.332Z,14.50
2018-12-07T05:16:40.597Z,14.60
2018-12-07T05:19:06.865Z,14.98
2018-12-07T05:21:33.187Z,14.10
2018-12-07T05:23:59.485Z,14.20
2018-12-07T05:26:25.755Z,13.45
2018-12-07T05:28:52.071Z,13.50
2018-12-07T05:31:18.353Z,14.98
2018-12-07T05:33:44.632Z,15.15
2018-12-07T05:36:11.038Z,13.80
2018-12-07T05:38:37.376Z,14.55
2018-12-07T05:41:03.645Z,18.75
2018-12-07T05:43:29.936Z,17.73
2018-12-07T05:45:56.216Z,14.10
2018-12-07T05:48:23.734Z,14.10
2018-12-07T05:50:50.337Z,14.65
2018-12-07T05:53:16.618Z,14.00
2018-12-07T05:55:42.950Z,13.30
2018-12-07T05:58:09.299Z,14.07
2018-12-07T06:00:35.660Z,14.60
2018-12-07T06:03:02.033Z,13.50
2018-12-07T06:05:28.286Z,14.10
2018-12-07T06:07:54.555Z,14.30
2018-12-07T06:10:20.860Z,15.70
2018-12-07T06:12:47.120Z,14.15
2018-12-07T06:15:13.417Z,14.23
2018-12-07T06:17:39.696Z,14.58
2018-12-07T06:20:05.970Z,14.50
2018-12-07T06:22:32.244Z,14.43
2018-12-07T06:24:58.607Z,14.83
2018-12-07T06:27:24.900Z,13.78
2018-12-07T06:29:51.206Z,14.65
2018-12-07T06:32:17.469Z,16.20
2018-12-07T06:34:43.713Z,15.40
2018-12-07T06:37:10.008Z,15.15
2018-12-07T06:39:36.262Z,14.80
2018-12-07T06:42:02.600Z,14.98
2018-12-07T06:44:28.895Z,14.63
2018-12-07T06:46:55.176Z,14.85
2018-12-07T06:49:21.450Z,14.50
2018-12-07T06:51:47.724Z,14.28
2018-12-07T06:54:14.049Z,13.95
2018-12-07T06:56:40.338Z,15.25
2018-12-07T06:59:06.675Z,13.78
2018-12-07T07:01:32.981Z,14.87
2018-12-07T07:03:59.233Z,14.83
2018-12-07T07:06:25.513Z,14.47
2018-12-07T07:08:51.845Z,14.00
2018-12-07T07:11:18.125Z,14.30
2018-12-07T07:13:44.472Z,15.80
2018-12-07T07:16:10.734Z,13.32
2018-12-07T07:18:37.019Z,17.40
2018-12-07T07:21:03.342Z,13.13
2018-12-07T07:23:29.632Z,14.05
2018-12-07T07:25:55.905Z,14.75
2018-12-07T07:28:22.196Z,14.45
2018-12-07T07:30:48.451Z,14.75
2018-12-07T07:33:14.712Z,16.32
2018-12-07T07:35:41.009Z,15.35
2018-12-07T07:38:07.267Z,13.40
2018-12-07T07:40:33.551Z,14.15
2018-12-07T07:42:59.828Z,14.43
2018-12-07T07:45:26.093Z,14.15
2018-12-07T07:47:52.372Z,13.80
2018-12-07T07:50:18.662Z,14.70
2018-12-07T07:52:44.980Z,13.05
2018-12-07T07:55:11.279Z,13.60
2018-12-07T07:57:37.565Z,14.13
2018-12-07T08:00:05.317Z,14.87
2018-12-07T08:02:31.626Z,13.93
2018-12-07T08:04:57.892Z,13.85
2018-12-07T08:07:24.183Z,14.70
2018-12-07T08:09:50.437Z,15.48
2018-12-07T08:12:16.707Z,15.03
2018-12-07T08:14:43.007Z,14.40
2018-12-07T08:17:09.263Z,13.58
2018-12-07T08:19:35.529Z,12.58
2018-12-07T08:22:02.835Z,13.95
2018-12-07T08:24:29.397Z,14.30
2018-12-07T08:26:55.689Z,13.85
2018-12-07T08:29:21.947Z,13.88
2018-12-07T08:31:48.261Z,13.28
2018-12-07T08:34:14.557Z,13.18
2018-12-07T08:36:40.844Z,13.00
2018-12-07T08:39:08.162Z,13.98
2018-12-07T08:41:34.472Z,13.40
2018-12-07T08:44:00.791Z,13.00
2018-12-07T08:46:34.201Z,12.25
2018-12-07T08:49:00.518Z,14.33
2018-12-07T08:51:26.936Z,13.20
2018-12-07T08:53:53.201Z,12.53
2018-12-07T08:56:19.457Z,13.38
2018-12-07T08:58:45.741Z,14.20
2018-12-07T09:01:12.024Z,13.18
2018-12-07T09:03:38.439Z,14.38
2018-12-07T09:06:04.727Z,14.80
2018-12-07T09:08:31.043Z,16.02
2018-12-07T09:10:57.336Z,14.50
2018-12-07T09:13:23.595Z,15.48
2018-12-07T09:15:49.884Z,14.30
2018-12-07T09:18:16.190Z,14.68
2018-12-07T09:20:42.493Z,16.95
2018-12-07T09:23:08.771Z,18.12
2018-12-07T09:25:35.035Z,15.43
2018-12-07T09:28:01.343Z,14.43
2018-12-07T09:30:27.615Z,13.72
2018-12-07T09:32:53.975Z,13.75
2018-12-07T09:35:20.248Z,13.00
2018-12-07T09:37:46.523Z,12.23
2018-12-07T09:40:13.070Z,13.20
2018-12-07T09:42:39.361Z,12.40
2018-12-07T09:45:05.911Z,13.18
2018-12-07T09:47:32.203Z,11.88
2018-12-07T09:49:58.503Z,12.18
2018-12-07T09:52:24.796Z,12.18
2018-12-07T09:54:51.100Z,11.88
2018-12-07T09:57:17.376Z,11.43
2018-12-07T09:59:43.670Z,11.97
2018-12-07T10:02:09.935Z,11.40
2018-12-07T10:04:36.195Z,10.95
2018-12-07T10:07:02.536Z,10.25
2018-12-07T10:09:28.854Z,9.77
2018-12-07T10:11:55.144Z,9.30
2018-12-07T10:14:21.444Z,9.80
2018-12-07T10:16:47.717Z,9.93
2018-12-07T10:19:14.047Z,9.85
2018-12-07T10:21:40.311Z,10.00
2018-12-07T10:24:06.603Z,9.90
2018-12-07T10:26:32.899Z,11.10
2018-12-07T10:28:59.159Z,10.90
2018-12-07T10:31:25.468Z,11.40
2018-12-07T10:33:51.800Z,10.72
2018-12-07T10:36:18.088Z,11.17
2018-12-07T10:38:44.331Z,10.57
2018-12-07T10:41:10.608Z,10.60
2018-12-07T10:43:36.908Z,11.27
2018-12-07T10:46:03.280Z,9.83
2018-12-07T10:48:29.555Z,11.03
2018-12-07T10:50:55.831Z,10.63
2018-12-07T10:53:22.168Z,10.53
2018-12-07T10:55:48.454Z,11.20
2018-12-07T10:58:14.724Z,10.60
2018-12-07T11:03:54.348Z,11.67
2018-12-07T11:06:26.620Z,10.83
2018-12-07T11:08:58.892Z,10.10
2018-12-07T11:11:31.267Z,11.73
2018-12-07T11:14:03.602Z,9.70
2018-12-07T11:16:35.853Z,9.63
2018-12-07T11:19:08.230Z,8.60
2018-12-07T11:21:40.785Z,9.40
2018-12-07T11:24:13.166Z,9.37
2018-12-07T11:29:55.488Z,10.00
2018-12-07T11:32:23.792Z,9.50
2018-12-07T11:34:51.911Z,9.90
2018-12-07T11:37:18.193Z,8.73
2018-12-07T11:39:44.521Z,9.50
2018-12-07T11:42:10.794Z,10.47
2018-12-07T11:44:37.100Z,9.40
2018-12-07T11:47:03.423Z,10.10
2018-12-07T11:49:31.772Z,8.13
2018-12-07T11:51:58.073Z,8.00
2018-12-07T11:54:24.408Z,6.90
2018-12-07T11:56:50.667Z,7.60
2018-12-07T11:59:16.955Z,7.13
2018-12-07T12:01:44.945Z,8.20
2018-12-07T12:04:11.544Z,7.63
2018-12-07T12:06:37.832Z,6.67
2018-12-07T12:09:06.000Z,8.43
2018-12-07T12:11:32.268Z,8.23
2018-12-07T12:13:58.552Z,8.00
2018-12-07T12:16:24.857Z,9.17
2018-12-07T12:18:51.120Z,10.17
2018-12-07T12:21:17.445Z,10.00
2018-12-07T12:23:43.745Z,9.77
2018-12-07T12:26:10.017Z,8.73
2018-12-07T12:28:36.318Z,8.70
2018-12-07T12:31:02.647Z,9.40
2018-12-07T12:33:28.936Z,9.23
2018-12-07T12:35:55.231Z,9.27
2018-12-07T12:38:21.539Z,10.10
2018-12-07T12:40:47.817Z,10.27
2018-12-07T12:43:14.111Z,9.43
2018-12-07T12:45:40.407Z,8.67
2018-12-07T12:48:06.699Z,9.10
2018-12-07T12:50:35.003Z,8.60
2018-12-07T12:53:01.546Z,8.17
2018-12-07T12:55:27.845Z,9.60
2018-12-07T12:57:54.161Z,9.50
2018-12-07T13:00:20.474Z,9.93
2018-12-07T13:02:46.775Z,9.53
2018-12-07T13:05:13.112Z,9.00
2018-12-07T13:07:39.456Z,9.10
2018-12-07T13:10:05.796Z,9.30
2018-12-07T13:12:32.071Z,8.70
2018-12-07T13:14:58.369Z,8.57
2018-12-07T13:17:24.752Z,9.43
2018-12-07T13:19:51.051Z,8.33
2018-12-07T13:22:17.333Z,8.40
2018-12-07T13:24:43.601Z,7.80
2018-12-07T13:27:09.875Z,7.63
2018-12-07T13:29:36.175Z,8.10
2018-12-07T13:32:02.589Z,8.53
2018-12-07T13:34:28.865Z,7.90
2018-12-07T13:36:55.152Z,8.47
2018-12-07T13:39:21.420Z,7.77
2018-12-07T13:41:50.509Z,7.33
2018-12-07T13:44:16.245Z,7.30
2018-12-07T13:46:43.008Z,7.57
2018-12-07T13:49:09.690Z,8.40
2018-12-07T13:51:36.257Z,8.40
2018-12-07T13:54:02.878Z,7.60
2018-12-07T13:56:29.351Z,8.37
2018-12-07T13:58:55.762Z,8.17
2018-12-07T14:01:22.308Z,7.73
2018-12-07T14:03:48.931Z,8.37
2018-12-07T14:06:15.437Z,8.00
2018-12-07T14:08:41.943Z,8.00
2018-12-07T14:11:08.337Z,8.27
2018-12-07T14:13:34.690Z,8.33
2018-12-07T14:16:01.323Z,8.87
2018-12-07T14:18:28.030Z,8.70
2018-12-07T14:20:54.437Z,8.70
2018-12-07T14:23:20.729Z,9.93
2018-12-07T14:25:47.187Z,10.27
2018-12-07T14:28:13.529Z,11.93
2018-12-07T14:30:39.927Z,10.33
2018-12-07T14:33:06.529Z,10.20
2018-12-07T14:35:32.882Z,10.70
2018-12-07T14:37:59.430Z,10.43
2018-12-07T14:40:25.858Z,14.67
2018-12-07T14:42:52.201Z,12.07
2018-12-07T14:45:18.564Z,12.13
2018-12-07T14:47:44.895Z,15.90
2018-12-07T14:50:11.271Z,30.00
2018-12-07T14:52:37.623Z,24.33
2018-12-07T14:55:04.462Z,16.80
2018-12-07T14:57:30.832Z,12.30
2018-12-07T14:59:57.096Z,10.83
2018-12-07T15:02:23.462Z,11.33
2018-12-07T15:04:49.907Z,19.60
2018-12-07T15:07:16.478Z,16.20
2018-12-07T15:09:42.955Z,14.20
2018-12-07T15:12:09.584Z,11.40
2018-12-07T15:14:35.975Z,15.70
2018-12-07T15:17:02.472Z,15.30
2018-12-07T15:19:28.996Z,10.50
2018-12-07T15:21:55.352Z,9.30
2018-12-07T15:24:21.657Z,19.70
2018-12-07T15:26:48.092Z,14.93
2018-12-07T15:29:14.500Z,11.00
2018-12-07T15:31:41.035Z,11.17
2018-12-07T15:34:07.419Z,10.47
2018-12-07T15:36:33.714Z,10.10
2018-12-07T15:39:00.565Z,9.60
2018-12-07T15:41:27.042Z,9.00
2018-12-07T15:43:53.425Z,8.53
2018-12-07T15:46:19.731Z,8.60
2018-12-07T15:48:46.195Z,9.47
2018-12-07T15:51:12.813Z,9.37
2018-12-07T15:53:39.219Z,8.47
2018-12-07T15:56:05.623Z,10.07
2018-12-07T15:58:32.030Z,10.50
2018-12-07T16:00:58.415Z,9.20
2018-12-07T16:03:24.871Z,10.27
2018-12-07T16:05:51.269Z,9.80
2018-12-07T16:08:24.756Z,9.60
2018-12-07T16:10:49.311Z,9.23
2018-12-07T16:13:14.258Z,9.53
2018-12-07T16:15:40.809Z,10.43
2018-12-07T16:18:07.120Z,10.13
2018-12-07T16:20:33.487Z,10.20
2018-12-07T16:23:00.033Z,10.77
2018-12-07T16:25:26.541Z,11.40
2018-12-07T16:27:52.983Z,10.83
2018-12-07T16:30:19.642Z,10.30
2018-12-07T16:32:46.163Z,10.67
2018-12-07T16:35:13.350Z,10.53
2018-12-07T16:37:40.092Z,12.57
2018-12-07T16:40:06.774Z,13.60
2018-12-07T16:42:33.134Z,14.53
2018-12-07T16:44:59.659Z,14.53
2018-12-07T16:47:26.041Z,14.90
2018-12-07T16:49:52.566Z,14.33
2018-12-07T16:52:18.994Z,14.10
2018-12-07T16:54:45.412Z,13.50
2018-12-07T16:57:11.759Z,13.25
2018-12-07T16:59:38.068Z,15.53
2018-12-07T17:02:04.634Z,12.33
2018-12-07T17:04:32.330Z,12.00
2018-12-07T17:06:58.734Z,12.30
2018-12-07T17:09:25.248Z,12.37
2018-12-07T17:11:51.928Z,12.18
2018-12-07T17:14:18.261Z,12.50
2018-12-07T17:16:44.746Z,12.80
2018-12-07T17:19:11.790Z,13.70
2018-12-07T17:21:38.269Z,19.05
2018-12-07T17:24:04.752Z,14.20
2018-12-07T17:26:31.218Z,11.60
2018-12-07T17:28:57.724Z,11.00
2018-12-07T17:31:24.332Z,12.25
2018-12-07T17:33:50.943Z,11.80
2018-12-07T17:36:17.462Z,11.10
2018-12-07T17:38:43.784Z,13.55
2018-12-07T17:41:10.363Z,13.05
2018-12-07T17:43:36.686Z,10.90
2018-12-07T17:46:03.249Z,12.15
2018-12-07T17:48:29.701Z,11.40
2018-12-07T17:50:56.279Z,11.10
2018-12-07T17:53:22.747Z,10.98
2018-12-07T17:55:49.135Z,11.55
2018-12-07T17:58:15.757Z,10.30
2018-12-07T18:00:42.585Z,11.12
2018-12-07T18:03:08.992Z,11.08
2018-12-07T18:05:35.260Z,12.03
2018-12-07T18:08:02.434Z,11.80
2018-12-07T18:10:28.951Z,11.35
2018-12-07T18:12:55.390Z,11.30
2018-12-07T18:15:21.777Z,10.53
2018-12-07T18:17:48.293Z,10.43
2018-12-07T18:20:14.821Z,10.70
2018-12-07T18:22:41.236Z,10.55
2018-12-07T18:25:07.930Z,10.32
2018-12-07T18:27:34.615Z,11.00
2018-12-07T18:30:01.047Z,11.55
2018-12-07T18:32:27.344Z,11.78
2018-12-07T18:34:53.936Z,12.25
2018-12-07T18:37:20.505Z,11.15
2018-12-07T18:39:46.896Z,10.32
2018-12-07T18:42:13.272Z,10.78
2018-12-07T18:44:39.633Z,11.75
2018-12-07T18:47:06.464Z,9.90
2018-12-07T18:49:33.109Z,9.73
2018-12-07T18:51:59.613Z,8.45
2018-12-07T18:54:25.987Z,8.70
2018-12-07T18:56:52.320Z,8.80
2018-12-07T18:59:18.753Z,8.73
2018-12-07T19:01:45.090Z,8.08
2018-12-07T19:04:11.562Z,8.90
2018-12-07T19:06:38.382Z,8.33
2018-12-07T19:09:06.045Z,6.72
2018-12-07T19:11:32.790Z,5.85
2018-12-07T19:13:59.281Z,4.55
2018-12-07T19:16:25.953Z,7.35
2018-12-07T19:18:52.741Z,5.20
2018-12-07T19:21:19.437Z,7.35
2018-12-07T19:23:46.072Z,4.15
2018-12-07T19:26:12.786Z,3.55
2018-12-07T19:28:39.434Z,3.22
2018-12-07T19:31:05.838Z,4.60
2018-12-07T19:33:32.150Z,3.55
2018-12-07T19:35:58.687Z,4.37
2018-12-07T19:38:25.128Z,7.28
2018-12-07T19:40:51.625Z,8.48
2018-12-07T19:43:18.017Z,8.83
2018-12-07T19:45:44.450Z,6.85
2018-12-07T19:48:11.058Z,15.03
2018-12-07T19:50:37.789Z,6.67
2018-12-07T19:53:04.113Z,4.95
2018-12-07T19:55:30.582Z,5.30
2018-12-07T19:57:57.252Z,5.65
2018-12-07T20:00:23.678Z,5.62
2018-12-07T20:02:50.506Z,4.78
2018-12-07T20:05:17.128Z,5.42
2018-12-07T20:07:43.519Z,5.60
2018-12-07T20:10:09.854Z,4.60
2018-12-07T20:12:36.524Z,3.70
2018-12-07T20:15:03.333Z,3.42
2018-12-07T20:17:29.777Z,3.17
2018-12-07T20:19:56.265Z,3.35
2018-12-07T20:22:22.578Z,3.05
2018-12-07T20:24:48.992Z,3.80
2018-12-07T20:27:15.773Z,3.30
2018-12-07T20:29:42.371Z,3.60
2018-12-07T20:32:08.850Z,3.65
2018-12-07T20:34:35.177Z,3.20
2018-12-07T20:37:01.534Z,3.67
2018-12-07T20:39:27.947Z,2.72
2018-12-07T20:41:54.398Z,5.22
2018-12-07T20:44:20.727Z,3.70
2018-12-07T20:46:47.019Z,4.20
2018-12-07T20:49:13.343Z,3.30
2018-12-07T20:51:39.899Z,3.95
2018-12-07T20:54:06.503Z,3.37
2018-12-07T20:56:32.934Z,2.65
2018-12-07T20:58:59.209Z,3.60
2018-12-07T21:01:25.543Z,2.90
2018-12-07T21:10:26.692Z,3.25
2018-12-07T21:13:32.955Z,3.10
2018-12-07T21:16:17.856Z,3.67
2018-12-07T21:18:44.218Z,2.80
2018-12-07T21:21:10.899Z,2.72
2018-12-07T21:23:37.404Z,2.87
2018-12-07T21:26:03.773Z,4.40
2018-12-07T21:28:30.117Z,3.00
2018-12-07T21:30:56.547Z,3.00
2018-12-07T21:33:22.956Z,3.42
2018-12-07T21:36:17.647Z,3.40
2018-12-07T21:38:44.244Z,3.52
2018-12-07T21:41:10.864Z,3.42
2018-12-07T21:43:37.313Z,3.70
2018-12-07T21:46:03.950Z,3.42
2018-12-07T21:48:30.433Z,3.77
2018-12-07T21:51:01.218Z,3.58
2018-12-07T21:53:27.579Z,3.80
2018-12-07T21:55:54.210Z,4.58
2018-12-07T21:58:20.854Z,3.58
2018-12-07T22:00:47.329Z,4.20
2018-12-07T22:03:13.897Z,3.72
2018-12-07T22:05:40.512Z,3.20
2018-12-07T22:08:07.004Z,3.87
2018-12-07T22:10:33.365Z,4.20
2018-12-07T22:12:59.806Z,4.20
2018-12-07T22:15:26.152Z,3.67
2018-12-07T22:17:52.435Z,3.90
2018-12-07T22:20:18.743Z,4.03
2018-12-07T22:22:45.304Z,3.95
2018-12-07T22:25:11.755Z,3.60
2018-12-07T22:27:38.284Z,3.58
2018-12-07T22:30:05.498Z,4.20
2018-12-07T22:32:32.126Z,4.00
2018-12-07T22:34:58.550Z,4.00
2018-12-07T22:37:24.963Z,4.28
2018-12-07T22:39:51.471Z,4.78
2018-12-07T22:42:17.948Z,4.30
2018-12-07T22:44:44.569Z,4.78
2018-12-07T22:47:10.979Z,4.50
2018-12-07T22:49:37.279Z,4.60
2018-12-07T22:52:03.535Z,4.42
2018-12-07T22:54:29.835Z,4.50
2018-12-07T22:56:56.112Z,4.60
2018-12-07T22:59:22.395Z,4.83
2018-12-07T23:01:48.727Z,4.50
2018-12-07T23:04:14.993Z,5.03
2018-12-07T23:06:41.297Z,4.00
2018-12-07T23:09:07.593Z,4.70
2018-12-07T23:11:33.866Z,5.25
2018-12-07T23:14:00.184Z,4.97
2018-12-07T23:16:26.426Z,4.10
2018-12-07T23:18:52.711Z,4.60
2018-12-07T23:21:19.036Z,4.75
2018-12-07T23:23:45.290Z,4.50
2018-12-07T23:26:11.579Z,4.67
2018-12-07T23:28:37.868Z,3.33
2018-12-07T23:31:04.153Z,3.83
2018-12-07T23:33:30.452Z,3.30
2018-12-07T23:35:56.786Z,2.62
2018-12-07T23:38:23.043Z,2.30
2018-12-07T23:40:49.343Z,1.65
2018-12-07T23:43:15.676Z,1.40
2018-12-07T23:45:41.952Z,1.00
2018-12-07T23:48:08.239Z,0.90
2018-12-07T23:50:34.539Z,1.00
2018-12-07T23:53:01.039Z,0.80
2018-12-07T23:55:27.328Z,0.70
2018-12-07T23:57:53.614Z,0.80
